Time;durP1;ratioP1;P1;durP2;ratioP2;P2;SDS_P1;SDS_P2;PMS_P1;PMS_P2;Temp;Humidity;BMP_temperature;BMP_pressure;BME280_temperature;BME280_humidity;BME280_pressure;Samples;Min_cycle;Max_cycle;Signal;HPM_P1;HPM_P2
2024/03/09 00:00:56;;;;;;;27.27;16.30;;;;;;;4.23;100.00;99502.75;5133171;27;20767;-73
2024/03/09 00:03:27;;;;;;;26.85;15.07;;;;;;;4.22;100.00;99508.91;5113400;27;20095;-69
2024/03/09 00:06:00;;;;;;;25.80;15.45;;;;;;;4.22;100.00;99501.03;5121395;27;20077;-71
2024/03/09 00:08:28;;;;;;;25.33;14.98;;;;;;;3.77;100.00;99425.78;5102151;27;20134;-72
2024/03/09 00:10:58;;;;;;;25.48;15.70;;;;;;;3.77;100.00;99435.41;5127709;27;20437;-74
2024/03/09 00:13:28;;;;;;;25.37;16.33;;;;;;;4.20;100.00;99508.09;5131215;27;20055;-74
2024/03/09 00:15:59;;;;;;;26.38;15.38;;;;;;;4.17;100.00;99506.44;5117961;27;20509;-73
2024/03/09 00:18:27;;;;;;;18.63;12.13;;;;;;;4.15;100.00;99510.00;5097450;27;20047;-72
2024/03/09 00:21:08;;;;;;;;;;;;;;;4.12;100.00;99505.72;5132291;27;20051;-72
2024/03/09 00:23:37;;;;;;;25.77;15.48;;;;;;;4.10;100.00;99506.69;5101280;27;19923;-71
2024/03/09 00:26:07;;;;;;;25.88;15.07;;;;;;;4.07;100.00;99501.59;5131369;27;20050;-73
2024/03/09 00:28:39;;;;;;;;;;;;;;;4.04;100.00;99501.69;5120684;27;20054;-72
2024/03/09 00:31:06;;;;;;;24.33;15.10;;;;;;;4.03;100.00;99497.34;5105078;27;20014;-72
2024/03/09 00:33:35;;;;;;;26.40;15.45;;;;;;;4.01;100.00;99499.16;5138013;27;20059;-72
2024/03/09 00:36:03;;;;;;;25.88;15.93;;;;;;;4.02;100.00;99501.72;5121937;27;20138;-72
2024/03/09 00:38:34;;;;;;;24.98;15.93;;;;;;;3.88;100.00;99483.88;5126146;27;20079;-73
2024/03/09 00:41:02;;;;;;;24.40;15.70;;;;;;;3.97;100.00;99502.78;5103174;27;20035;-71
2024/03/09 00:43:31;;;;;;;27.25;15.90;;;;;;;3.93;100.00;99501.22;5109737;27;20039;-73
2024/03/09 00:45:59;;;;;;;23.83;15.23;;;;;;;3.88;100.00;99496.13;5130893;27;20113;-73
2024/03/09 00:48:27;;;;;;;26.10;15.43;;;;;;;3.68;100.00;99454.88;5123627;27;20122;-72
2024/03/09 00:50:55;;;;;;;27.75;15.80;;;;;;;3.90;100.00;99490.81;5136473;27;20035;-73
2024/03/09 00:53:23;;;;;;;27.05;15.98;;;;;;;3.84;100.00;99484.88;5124055;27;20047;-73
2024/03/09 00:55:52;;;;;;;27.15;16.48;;;;;;;3.81;100.00;99487.59;5121938;27;20088;-72
2024/03/09 00:58:21;;;;;;;25.15;16.13;;;;;;;3.68;100.00;99467.97;5120075;27;20525;-72
2024/03/09 01:00:51;;;;;;;25.13;16.17;;;;;;;3.35;100.00;99403.66;5126154;27;20035;-73
2024/03/09 01:03:45;;;;;;;19.57;12.17;;;;;;;3.71;100.00;99475.72;5125546;27;20042;-72
2024/03/09 01:06:15;;;;;;;25.90;15.63;;;;;;;3.70;100.00;99479.25;5123775;27;20568;-72
2024/03/09 01:09:08;;;;;;;24.85;15.20;;;;;;;3.64;100.00;99465.50;5123184;27;20503;-74
2024/03/09 01:11:36;;;;;;;28.02;16.25;;;;;;;3.61;100.00;99473.50;5122611;27;20040;-72
2024/03/09 01:14:03;;;;;;;26.23;16.60;;;;;;;3.59;100.00;99470.91;5101342;27;20050;-72
2024/03/09 01:16:33;;;;;;;28.25;15.70;;;;;;;3.49;100.00;99454.66;5118980;27;20051;-72
2024/03/09 01:19:00;;;;;;;28.75;16.92;;;;;;;3.52;100.00;99467.63;5119996;27;20536;-72
2024/03/09 01:21:29;;;;;;;26.45;16.13;;;;;;;3.51;100.00;99468.53;5117835;27;20075;-73
2024/03/09 01:24:24;;;;;;;29.45;17.27;;;;;;;3.49;100.00;99469.50;5118575;27;20044;-71
2024/03/09 01:26:51;;;;;;;25.77;16.20;;;;;;;3.47;100.00;99460.84;5112410;27;20152;-71
2024/03/09 01:29:22;;;;;;;26.02;15.90;;;;;;;3.43;100.00;99460.09;5095840;27;20181;-73
2024/03/09 01:31:52;;;;;;;28.98;17.08;;;;;;;3.40;100.00;99454.09;5114251;27;20101;-72
2024/03/09 01:34:20;;;;;;;;;;;;;;;3.35;100.00;99441.16;5118146;27;20112;-72
2024/03/09 01:36:48;;;;;;;26.42;15.55;;;;;;;3.35;100.00;99445.53;5111351;27;19927;-70
2024/03/09 01:39:17;;;;;;;29.00;16.73;;;;;;;3.07;100.00;99403.72;5113095;27;20062;-73
2024/03/09 01:41:45;;;;;;;26.73;16.10;;;;;;;3.31;100.00;99457.84;5111886;27;20047;-74
2024/03/09 01:44:14;;;;;;;28.25;15.82;;;;;;;3.29;100.00;99451.84;5117453;27;20486;-71
2024/03/09 01:47:09;;;;;;;26.02;15.88;;;;;;;3.27;100.00;99442.34;5084743;27;21081;-73
2024/03/09 01:49:37;;;;;;;28.38;16.40;;;;;;;3.25;100.00;99439.75;5111346;27;20084;-74
2024/03/09 01:52:07;;;;;;;31.23;16.55;;;;;;;3.24;100.00;99437.19;5103275;27;20111;-72
2024/03/09 01:54:37;;;;;;;27.65;16.85;;;;;;;3.23;100.00;99435.47;5119171;27;20069;-72
2024/03/09 01:57:13;;;;;;;29.88;17.23;;;;;;;2.99;100.00;99401.34;5117825;27;20416;-72
2024/03/09 01:59:47;;;;;;;28.60;16.77;;;;;;;3.04;100.00;99430.84;5110097;27;20035;-71
2024/03/09 02:02:16;;;;;;;25.27;16.27;;;;;;;3.14;100.00;99429.66;5100101;28;20401;-72
2024/03/09 02:04:46;;;;;;;27.67;16.17;;;;;;;3.16;100.00;99427.81;5097359;27;20043;-73
2024/03/09 02:07:16;;;;;;;27.27;16.60;;;;;;;3.19;100.00;99426.88;5115716;27;20043;-72
2024/03/09 02:09:46;;;;;;;28.92;17.02;;;;;;;3.21;100.00;99426.81;5113395;27;20428;-72
2024/03/09 02:12:16;;;;;;;26.52;16.42;;;;;;;3.18;100.00;99426.00;5116298;27;20554;-72
2024/03/09 02:14:46;;;;;;;27.20;16.13;;;;;;;3.15;100.00;99431.34;5116635;27;20427;-71
2024/03/09 02:17:16;;;;;;;27.83;16.90;;;;;;;3.13;100.00;99430.56;5105448;27;20101;-71
2024/03/09 02:19:44;;;;;;;26.08;17.15;;;;;;;3.13;100.00;99425.31;5095245;27;20066;-72
2024/03/09 02:22:18;;;;;;;28.55;16.73;;;;;;;3.07;100.00;99412.44;5117819;27;20058;-73
2024/03/09 02:24:54;;;;;;;27.23;16.33;;;;;;;3.14;100.00;99420.94;5100868;27;20865;-72
2024/03/09 02:27:26;;;;;;;26.80;16.45;;;;;;;3.13;100.00;99414.88;5112644;27;20049;-74
2024/03/09 02:29:54;;;;;;;27.88;16.65;;;;;;;2.40;100.00;99291.72;5112416;27;20075;-74
2024/03/09 02:32:22;;;;;;;29.35;16.58;;;;;;;3.02;100.00;99419.56;5122825;27;20043;-72
2024/03/09 02:34:50;;;;;;;32.20;16.90;;;;;;;2.93;100.00;99412.03;5111793;27;20061;-72
2024/03/09 02:38:09;;;;;;;29.02;16.17;;;;;;;2.86;100.00;99407.88;5116492;27;20074;-71
2024/03/09 02:40:38;;;;;;;28.70;17.07;;;;;;;2.80;100.00;99401.09;5116016;27;20052;-73
2024/03/09 02:43:07;;;;;;;31.42;17.45;;;;;;;2.77;100.00;99406.41;5112961;27;20134;-72
2024/03/09 02:45:39;;;;;;;28.73;16.93;;;;;;;2.59;100.00;99390.44;5096815;27;21642;-72
2024/03/09 02:48:11;;;;;;;29.42;16.90;;;;;;;2.65;100.00;99398.97;5108515;27;20046;-71
2024/03/09 02:50:40;;;;;;;32.17;16.92;;;;;;;2.62;100.00;99391.22;5118213;27;20042;-72
2024/03/09 02:53:08;;;;;;;27.60;17.05;;;;;;;2.64;100.00;99397.25;5115741;27;20051;-71
2024/03/09 02:55:36;;;;;;;27.50;16.50;;;;;;;2.60;100.00;99395.63;5115238;27;20062;-74
2024/03/09 02:58:06;;;;;;;30.80;18.00;;;;;;;2.59;100.00;99400.91;5112621;27;20151;-72
2024/03/09 03:00:35;;;;;;;32.25;18.15;;;;;;;2.56;100.00;99396.59;5117792;27;20536;-72
2024/03/09 03:05:52;;;;;;;31.25;17.50;;;;;;;2.53;100.00;99396.69;5114110;27;20055;-72
2024/03/09 03:08:20;;;;;;;29.08;16.98;;;;;;;2.53;100.00;99393.22;5104548;27;20066;-72
2024/03/09 03:10:48;;;;;;;32.28;18.13;;;;;;;2.51;100.00;99395.91;5118540;27;20661;-72
2024/03/09 03:13:18;;;;;;;33.40;17.27;;;;;;;2.51;100.00;99392.44;5136628;27;20047;-73
2024/03/09 03:15:47;;;;;;;31.70;18.00;;;;;;;2.51;100.00;99397.66;5115622;27;20075;-73
2024/03/09 03:18:15;;;;;;;28.65;16.73;;;;;;;2.25;100.00;99344.44;5120524;27;20047;-72
2024/03/09 03:20:43;;;;;;;29.73;16.88;;;;;;;2.52;100.00;99386.31;5119554;27;20785;-73
2024/03/09 03:23:10;;;;;;;27.65;16.48;;;;;;;2.47;100.00;99384.69;5121750;27;20135;-71
2024/03/09 03:25:39;;;;;;;28.63;16.67;;;;;;;2.47;100.00;99384.69;5119704;27;20134;-73
2024/03/09 03:28:08;;;;;;;27.67;16.38;;;;;;;2.47;100.00;99389.91;5117370;27;20133;-71
2024/03/09 03:33:30;;;;;;;28.50;17.20;;;;;;;2.49;100.00;99395.09;5118821;27;20432;-72
2024/03/09 03:36:01;;;;;;;28.80;16.70;;;;;;;2.43;100.00;99384.81;5128957;27;20054;-72
2024/03/09 03:38:34;;;;;;;;;;;;;;;2.49;100.00;99394.25;5125317;27;20055;-72
2024/03/09 03:41:06;;;;;;;31.98;17.98;;;;;;;1.93;100.00;99294.91;5126179;27;19961;-72
2024/03/09 03:43:34;;;;;;;30.02;17.50;;;;;;;2.32;100.00;99359.03;5122554;27;20053;-73
2024/03/09 03:46:05;;;;;;;32.35;17.40;;;;;;;2.43;100.00;99371.75;5134013;27;20058;-72
2024/03/09 03:48:33;;;;;;;30.88;17.42;;;;;;;2.41;100.00;99366.56;5118001;27;20096;-72
2024/03/09 03:51:01;;;;;;;31.23;18.10;;;;;;;2.35;100.00;99355.47;5118181;27;20562;-72
2024/03/09 03:53:29;;;;;;;28.48;16.70;;;;;;;2.35;100.00;99348.50;5124424;27;20051;-72
2024/03/09 03:55:58;;;;;;;28.35;17.08;;;;;;;2.31;100.00;99341.63;5118330;27;20058;-73
2024/03/09 03:58:27;;;;;;;31.15;17.17;;;;;;;2.43;100.00;99362.16;5125320;27;20047;-72
2024/03/09 04:00:56;;;;;;;28.83;17.48;;;;;;;2.43;100.00;99364.78;5124833;27;20039;-72
2024/03/09 04:03:29;;;;;;;29.70;16.67;;;;;;;2.40;100.00;99364.00;5099933;27;20485;-71
2024/03/09 04:05:58;;;;;;;27.08;16.77;;;;;;;2.10;100.00;99321.38;5125801;27;20054;-73
2024/03/09 04:08:27;;;;;;;29.80;16.65;;;;;;;2.37;100.00;99358.88;5119227;27;20040;-72
2024/03/09 04:10:55;;;;;;;24.73;15.20;;;;;;;2.36;100.00;99357.19;5107369;27;20058;-72
2024/03/09 04:13:24;;;;;;;29.60;17.13;;;;;;;2.01;100.00;99298.16;5122235;27;20047;-73
2024/03/09 04:15:55;;;;;;;30.90;16.77;;;;;;;2.32;100.00;99351.19;5129894;27;20115;-73
2024/03/09 04:18:30;;;;;;;27.98;17.23;;;;;;;2.32;100.00;99358.16;5116761;27;20050;-72
2024/03/09 04:21:02;;;;;;;30.42;16.73;;;;;;;2.32;100.00;99351.19;5101925;27;20051;-73
2024/03/09 04:23:30;;;;;;;30.10;17.10;;;;;;;2.34;100.00;99351.16;5124175;27;20042;-73
2024/03/09 04:25:58;;;;;;;29.13;16.50;;;;;;;1.25;100.00;99170.81;5103113;27;20043;-72
2024/03/09 04:28:30;;;;;;;30.20;17.20;;;;;;;2.32;100.00;99345.97;5108961;27;20117;-71
2024/03/09 04:30:59;;;;;;;31.02;16.90;;;;;;;2.30;100.00;99347.75;5097580;27;20120;-72
2024/03/09 04:33:30;;;;;;;30.50;17.42;;;;;;;2.23;100.00;99335.78;5116285;27;20043;-72
2024/03/09 04:35:59;;;;;;;29.45;16.40;;;;;;;2.26;100.00;99343.53;5115737;27;20516;-72
2024/03/09 04:38:26;;;;;;;30.42;16.67;;;;;;;2.24;100.00;99347.94;5113567;27;20048;-71
2024/03/09 04:40:54;;;;;;;32.38;18.08;;;;;;;2.16;100.00;99334.25;5119155;27;20043;-72
2024/03/09 04:43:23;;;;;;;28.02;16.70;;;;;;;2.20;100.00;99355.94;5130536;27;21542;-72
2024/03/09 04:45:55;;;;;;;30.75;17.40;;;;;;;2.19;100.00;99355.06;5099139;27;20045;-72
2024/03/09 04:48:24;;;;;;;31.73;17.65;;;;;;;1.93;100.00;99308.81;5099283;27;20049;-72
2024/03/09 04:50:55;;;;;;;29.10;17.17;;;;;;;2.22;100.00;99344.50;5118308;27;20116;-72
2024/03/09 04:53:23;;;;;;;27.80;16.40;;;;;;;2.24;100.00;99345.31;5119006;27;20393;-72
2024/03/09 04:56:16;;;;;;;29.08;16.23;;;;;;;2.19;100.00;99338.56;5118944;27;20047;-72
2024/03/09 04:58:44;;;;;;;33.30;17.55;;;;;;;2.21;100.00;99342.78;5110577;27;20576;-71
2024/03/09 05:01:13;;;;;;;29.05;16.65;;;;;;;1.95;100.00;99308.78;5134250;27;21982;-72
2024/03/09 05:03:41;;;;;;;31.75;17.17;;;;;;;2.15;100.00;99343.00;5100891;27;20035;-72
2024/03/09 05:06:12;;;;;;;31.80;17.27;;;;;;;2.06;100.00;99322.38;5103668;27;20051;-73
2024/03/09 05:08:43;;;;;;;28.88;16.80;;;;;;;2.13;100.00;99346.56;5107940;27;20039;-71
2024/03/09 05:11:12;;;;;;;29.50;16.08;;;;;;;2.09;100.00;99337.94;5116731;27;20068;-72
2024/03/09 05:13:40;;;;;;;29.98;16.33;;;;;;;2.10;100.00;99330.06;5118055;27;20062;-73
2024/03/09 05:16:11;;;;;;;27.65;16.15;;;;;;;2.10;100.00;99330.06;5117403;27;20043;-72
2024/03/09 05:19:07;;;;;;;29.58;16.92;;;;;;;2.11;100.00;99320.47;5110217;27;20043;-72
2024/03/09 05:21:44;;;;;;;28.95;16.10;;;;;;;2.01;100.00;99292.94;5117488;27;20126;-71
2024/03/09 05:24:11;;;;;;;30.35;16.92;;;;;;;2.15;100.00;99301.22;5109300;27;20039;-71
2024/03/09 05:26:42;;;;;;;29.65;16.70;;;;;;;2.18;100.00;99297.66;5112286;27;20042;-72
2024/03/09 05:29:12;;;;;;;29.45;17.05;;;;;;;2.24;100.00;99290.47;5112005;27;20043;-73
2024/03/09 05:31:40;;;;;;;27.97;16.17;;;;;;;2.23;100.00;99288.75;5116215;27;20050;-72
2024/03/09 05:34:11;;;;;;;29.90;17.02;;;;;;;2.27;100.00;99295.59;5117031;27;20035;-71
2024/03/09 05:36:40;;;;;;;29.23;16.23;;;;;;;2.35;100.00;99300.63;5101370;27;20127;-72
2024/03/09 05:39:10;;;;;;;26.02;15.90;;;;;;;2.36;100.00;99302.31;5111565;27;20567;-71
2024/03/09 05:41:38;;;;;;;;;;;;;;;2.35;100.00;99300.63;5115805;27;20845;-71
2024/03/09 05:44:06;;;;;;;26.90;15.98;;;;;;;2.32;100.00;99306.78;5115851;27;20010;-71
2024/03/09 05:46:37;;;;;;;29.25;17.00;;;;;;;2.34;100.00;99306.75;5119190;27;20031;-70
2024/03/09 05:49:05;;;;;;;29.70;16.48;;;;;;;2.22;100.00;99276.59;5106094;27;20043;-71
2024/03/09 05:51:34;;;;;;;28.55;16.65;;;;;;;2.38;100.00;99303.09;5088480;27;20043;-73
2024/03/09 05:54:04;;;;;;;28.10;16.08;;;;;;;1.88;100.00;99224.59;5115084;27;20131;-71
2024/03/09 05:56:32;;;;;;;31.27;17.90;;;;;;;2.25;100.00;99286.97;5120217;27;20040;-73
2024/03/09 05:59:00;;;;;;;30.30;16.38;;;;;;;2.40;100.00;99309.13;5112768;27;20052;-72
2024/03/09 06:01:28;;;;;;;31.83;17.83;;;;;;;2.39;100.00;99300.44;5108940;27;20083;-72
2024/03/09 06:03:59;;;;;;;26.55;16.50;;;;;;;2.40;100.00;99302.16;5095623;27;20577;-72
2024/03/09 06:06:27;;;;;;;29.58;16.77;;;;;;;2.41;100.00;99282.13;5136314;27;20123;-71
2024/03/09 06:08:58;;;;;;;29.90;16.45;;;;;;;2.50;100.00;99283.59;5115587;27;20067;-71
2024/03/09 06:11:27;;;;;;;29.90;17.27;;;;;;;2.38;100.00;99256.06;5098889;27;20039;-70
2024/03/09 06:13:56;;;;;;;28.05;16.25;;;;;;;2.59;100.00;99286.75;5113509;27;20416;-73
2024/03/09 06:16:24;;;;;;;27.75;15.77;;;;;;;2.28;100.00;99234.63;5121907;27;20035;-71
2024/03/09 06:18:52;;;;;;;26.60;15.88;;;;;;;2.63;100.00;99293.59;5119244;27;20434;-71
2024/03/09 06:21:22;;;;;;;28.20;16.48;;;;;;;2.64;100.00;99304.91;5104820;27;20059;-72
2024/03/09 06:26:44;;;;;;;27.70;16.13;;;;;;;2.63;100.00;99290.13;5118637;27;20043;-72
2024/03/09 06:29:12;;;;;;;27.92;16.45;;;;;;;2.81;100.00;99307.84;5109005;27;20046;-72
2024/03/09 06:31:43;;;;;;;25.38;16.10;;;;;;;2.81;100.00;99300.84;5119416;27;20043;-72
2024/03/09 06:34:11;;;;;;;26.42;16.17;;;;;;;2.95;100.00;99310.84;5111065;27;20051;-72
2024/03/09 06:36:39;;;;;;;28.15;16.58;;;;;;;2.77;100.00;99272.22;5117290;27;20049;-72
2024/03/09 06:39:07;;;;;;;27.23;16.50;;;;;;;3.07;100.00;99320.88;5115669;27;20040;-71
2024/03/09 06:41:36;;;;;;;28.10;15.88;;;;;;;2.97;100.00;99288.13;5080634;27;20091;-72
2024/03/09 06:44:08;;;;;;;29.33;16.30;;;;;;;3.08;100.00;99298.19;5101224;27;20051;-72
2024/03/09 06:49:30;;;;;;;27.67;15.85;;;;;;;3.43;100.00;99308.31;5128715;27;20738;-71
2024/03/09 06:51:58;;;;;;;25.67;15.20;;;;;;;3.51;100.00;99300.16;5119779;27;20047;-71
2024/03/09 06:54:29;;;;;;;26.58;16.05;;;;;;;3.49;100.00;99278.44;5112459;27;20083;-73
2024/03/09 06:56:57;;;;;;;25.15;15.02;;;;;;;3.72;100.00;99309.03;5124242;27;20135;-72
2024/03/09 06:59:26;;;;;;;26.95;15.45;;;;;;;3.66;100.00;99290.91;5098961;27;20096;-72
2024/03/09 07:01:57;;;;;;;27.05;15.50;;;;;;;3.78;100.00;99299.16;5116667;27;20477;-74
2024/03/09 07:04:25;;;;;;;26.27;14.93;;;;;;;3.87;100.00;99305.84;5102780;27;20142;-72
2024/03/09 07:06:53;;;;;;;23.88;14.48;;;;;;;3.86;100.00;99291.91;5119502;27;20051;-72
2024/03/09 07:09:22;;;;;;;26.08;15.43;;;;;;;3.79;100.00;99269.44;5115003;27;20039;-72
2024/03/09 07:11:52;;;;;;;24.70;15.20;;;;;;;3.70;100.00;99242.78;5121727;27;20043;-71
2024/03/09 07:14:21;;;;;;;25.50;15.15;;;;;;;4.04;100.00;99284.25;5119744;27;20043;-71
2024/03/09 07:16:51;;;;;;;26.13;15.27;;;;;;;4.25;100.00;99303.56;5117920;27;20044;-72
2024/03/09 07:19:20;;;;;;;25.53;15.17;;;;;;;4.11;100.00;99270.00;5117583;27;20050;-70
2024/03/09 07:21:48;;;;;;;26.00;15.20;;;;;;;4.31;100.00;99306.78;5085550;27;20123;-72
2024/03/09 07:24:43;;;;;;;24.27;14.48;;;;;;;4.46;100.00;99323.66;5120904;27;20119;-72
2024/03/09 07:27:11;;;;;;;25.90;14.73;;;;;;;4.56;100.00;99307.50;5119472;27;20054;-71
2024/03/09 07:29:41;;;;;;;24.80;14.82;;;;;;;4.61;100.00;99312.56;5112959;27;20534;-71
2024/03/09 07:32:10;;;;;;;24.92;15.20;;;;;;;4.62;100.00;99318.66;5120948;27;20105;-73
2024/03/09 07:34:40;;;;;;;23.52;15.00;;;;;;;4.64;100.00;99322.94;5118276;27;20065;-71
2024/03/09 07:37:08;;;;;;;23.38;14.48;;;;;;;4.44;100.00;99276.53;5116719;27;20097;-72
2024/03/09 07:39:37;;;;;;;24.77;15.23;;;;;;;4.73;100.00;99316.47;5108554;27;20608;-72
2024/03/09 07:42:35;;;;;;;27.08;15.23;;;;;;;4.78;100.00;99323.25;5120490;27;20476;-72
2024/03/09 07:45:06;;;;;;;28.40;16.20;;;;;;;4.50;100.00;99283.31;5103670;27;20059;-74
2024/03/09 07:47:36;;;;;;;25.13;15.25;;;;;;;4.74;100.00;99324.28;5117977;27;20035;-73
2024/03/09 07:50:04;;;;;;;27.65;16.15;;;;;;;4.77;100.00;99324.16;5110934;27;21149;-72
2024/03/09 07:52:32;;;;;;;26.80;15.65;;;;;;;4.84;100.00;99330.00;5118909;27;20051;-72
2024/03/09 07:55:00;;;;;;;27.05;14.95;;;;;;;4.98;100.00;99322.44;5083741;27;20605;-72
2024/03/09 07:57:28;;;;;;;24.98;15.48;;;;;;;5.16;100.00;99320.81;5119553;27;20776;-72
2024/03/09 07:59:56;;;;;;;22.73;14.85;;;;;;;5.06;100.00;99280.97;5109749;27;20047;-72
2024/03/09 08:02:25;;;;;;;25.35;14.77;;;;;;;5.47;100.00;99320.38;5131853;27;20066;-71
2024/03/09 08:04:54;;;;;;;25.92;15.38;;;;;;;5.74;100.00;99311.25;5109156;27;20120;-72
2024/03/09 08:07:22;;;;;;;25.73;15.57;;;;;;;5.50;100.00;99216.06;5118260;27;20049;-74
2024/03/09 08:09:50;;;;;;;21.80;14.43;;;;;;;6.04;100.00;99301.19;5114591;27;20512;-73
2024/03/09 08:12:18;;;;;;;25.40;15.05;;;;;;;6.12;100.00;99283.28;5116923;27;20054;-72
2024/03/09 08:14:46;;;;;;;23.60;14.52;;;;;;;6.17;100.00;99277.81;5119935;27;20051;-71
2024/03/09 08:17:16;;;;;;;25.27;14.68;;;;;;;6.41;100.00;99279.28;5119394;27;20116;-72
2024/03/09 08:19:44;;;;;;;22.25;14.07;;;;;;;6.46;100.00;99279.03;5095665;27;20567;-74
2024/03/09 08:22:14;;;;;;;22.55;14.13;;;;;;;6.54;100.00;99282.19;5132064;27;20066;-72
2024/03/09 08:24:42;;;;;;;21.10;13.65;;;;;;;6.55;100.00;99276.00;5102612;27;20043;-72
2024/03/09 08:27:10;;;;;;;23.52;14.63;;;;;;;6.50;100.00;99257.78;5120893;27;20230;-73
2024/03/09 08:29:38;;;;;;;22.27;13.52;;;;;;;6.73;100.00;99276.88;5110906;27;20054;-73
2024/03/09 08:32:05;;;;;;;21.38;13.23;;;;;;;7.04;100.00;99284.97;5117945;27;20047;-72
2024/03/09 08:34:34;;;;;;;23.05;14.18;;;;;;;7.54;97.65;99297.31;5119986;27;20504;-72
2024/03/09 08:37:08;;;;;;;24.25;14.30;;;;;;;7.16;89.21;99172.91;5116327;27;20042;-71
2024/03/09 08:39:38;;;;;;;20.65;13.73;;;;;;;8.09;87.51;99292.59;5114674;27;20049;-72
2024/03/09 08:42:11;;;;;;;21.25;13.50;;;;;;;8.21;85.06;99288.44;5097542;27;20047;-72
2024/03/09 08:44:39;;;;;;;20.90;13.30;;;;;;;8.03;83.16;99277.94;5116610;27;20572;-72
2024/03/09 08:47:07;;;;;;;20.58;13.25;;;;;;;7.88;84.26;99286.69;5114271;27;20046;-73
2024/03/09 08:49:36;;;;;;;23.13;13.63;;;;;;;7.60;87.41;99274.13;5110284;27;20047;-71
2024/03/09 08:52:04;;;;;;;23.10;14.23;;;;;;;7.44;89.96;99267.97;5114145;27;20035;-74
2024/03/09 08:54:33;;;;;;;23.40;14.00;;;;;;;7.17;90.13;99238.66;5114756;27;20508;-73
2024/03/09 08:57:03;;;;;;;22.00;14.20;;;;;;;7.19;92.68;99273.66;5100539;27;20251;-72
2024/03/09 08:59:32;;;;;;;23.30;14.20;;;;;;;7.01;92.35;99253.53;5093704;27;20108;-71
2024/03/09 09:02:01;;;;;;;23.87;14.07;;;;;;;7.12;95.86;99282.78;5087282;27;20047;-73
2024/03/09 09:04:29;;;;;;;23.25;14.23;;;;;;;6.80;94.76;99220.38;5112627;27;20466;-72
2024/03/09 09:06:57;;;;;;;24.20;14.55;;;;;;;7.30;95.87;99273.94;5116985;27;20107;-73
2024/03/09 09:09:25;;;;;;;22.55;13.95;;;;;;;7.36;93.54;99281.53;5073520;27;20561;-71
2024/03/09 09:11:54;;;;;;;20.55;13.90;;;;;;;7.40;93.39;99266.41;5106470;27;20055;-72
2024/03/09 09:14:24;;;;;;;21.70;13.95;;;;;;;7.44;91.81;99277.66;5113370;27;20047;-71
2024/03/09 09:16:53;;;;;;;24.87;14.67;;;;;;;7.35;89.59;99245.59;5117550;27;20043;-71
2024/03/09 09:19:24;;;;;;;23.95;13.55;;;;;;;7.52;90.03;99260.53;5115587;27;20461;-72
2024/03/09 09:21:53;;;;;;;21.83;13.90;;;;;;;7.55;89.48;99262.16;5111348;27;20050;-72
2024/03/09 09:24:24;;;;;;;23.67;14.20;;;;;;;7.56;90.28;99269.94;5114884;27;20046;-72
2024/03/09 09:26:52;;;;;;;21.33;13.50;;;;;;;7.63;87.51;99259.94;5104808;27;20047;-72
2024/03/09 09:29:21;;;;;;;20.55;13.13;;;;;;;7.67;88.66;99245.69;5127575;27;20532;-72
2024/03/09 09:31:50;;;;;;;22.15;12.75;;;;;;;7.76;87.11;99247.81;5103115;27;20538;-72
2024/03/09 09:34:17;;;;;;;19.42;12.77;;;;;;;7.34;87.37;99153.50;5116849;27;20061;-73
2024/03/09 09:36:47;;;;;;;23.25;13.57;;;;;;;7.83;83.13;99211.47;5110179;27;20050;-72
2024/03/09 09:39:20;;;;;;;22.90;13.37;;;;;;;8.16;83.20;99237.75;5098470;27;20760;-71
2024/03/09 09:41:50;;;;;;;23.20;12.77;;;;;;;8.14;81.31;99207.97;5112562;27;20047;-71
2024/03/09 09:44:20;;;;;;;21.48;14.00;;;;;;;7.63;78.79;99115.03;5114216;27;20043;-73
2024/03/09 09:46:48;;;;;;;21.10;12.95;;;;;;;8.32;80.58;99236.00;5116757;27;20045;-72
2024/03/09 09:49:18;;;;;;;20.60;12.88;;;;;;;8.37;80.52;99236.56;5116329;27;20046;-73
2024/03/09 09:51:48;;;;;;;19.73;13.05;;;;;;;8.35;78.12;99214.69;5105582;27;20103;-73
2024/03/09 09:54:16;;;;;;;21.23;13.35;;;;;;;8.51;77.58;99225.22;5114470;27;20103;-72
2024/03/09 09:56:46;;;;;;;23.20;13.77;;;;;;;8.57;76.25;99214.34;5116909;27;20150;-72
2024/03/09 09:59:17;;;;;;;21.48;13.23;;;;;;;8.61;75.98;99206.16;5091501;27;20122;-71
2024/03/09 10:01:45;;;;;;;21.88;14.05;;;;;;;8.68;75.22;99210.13;5106371;27;20050;-72
2024/03/09 10:04:16;;;;;;;21.83;13.60;;;;;;;8.35;75.28;99151.38;5116522;27;20044;-73
2024/03/09 10:06:47;;;;;;;19.70;12.82;;;;;;;8.71;74.76;99195.91;5115605;27;20046;-72
2024/03/09 10:09:27;;;;;;;21.80;13.65;;;;;;;8.78;74.65;99195.47;5110683;27;20039;-72
2024/03/09 10:11:56;;;;;;;22.50;14.60;;;;;;;8.82;74.23;99192.63;5110830;27;20042;-72
2024/03/09 10:14:28;;;;;;;22.85;13.73;;;;;;;8.85;74.46;99198.59;5115146;27;21173;-72
2024/03/09 10:17:01;;;;;;;20.20;13.63;;;;;;;8.81;73.55;99188.31;5109357;27;20671;-74
2024/03/09 10:19:30;;;;;;;20.75;13.77;;;;;;;8.93;73.74;99191.09;5118497;27;20047;-74
2024/03/09 10:22:01;;;;;;;23.08;14.45;;;;;;;9.00;72.81;99187.13;5109591;27;20051;-71
2024/03/09 10:24:28;;;;;;;;;;;;;;;9.13;72.50;99174.88;5122654;27;20053;-74
2024/03/09 10:27:06;;;;;;;20.95;13.55;;;;;;;9.04;71.48;99145.53;5123220;27;19923;-72
2024/03/09 10:29:34;;;;;;;21.58;13.40;;;;;;;9.34;70.85;99159.53;5133902;27;20039;-71
2024/03/09 10:32:07;;;;;;;21.05;14.15;;;;;;;9.31;70.46;99140.34;5098831;27;20051;-72
2024/03/09 10:34:45;;;;;;;21.08;13.63;;;;;;;9.48;69.25;99156.88;5097532;27;20068;-72
2024/03/09 10:37:23;;;;;;;22.90;13.73;;;;;;;9.16;69.87;99091.97;5116025;27;20063;-71
2024/03/09 10:39:52;;;;;;;19.35;13.35;;;;;;;9.58;69.34;99132.53;5120652;27;20051;-75
2024/03/09 10:42:21;;;;;;;20.20;13.52;;;;;;;9.72;68.45;99121.94;5120898;27;20104;-71
2024/03/09 10:44:53;;;;;;;21.23;14.02;;;;;;;9.87;67.03;99120.94;5117754;27;20463;-73
2024/03/09 10:47:25;;;;;;;21.80;13.48;;;;;;;9.88;67.07;99105.94;5119105;27;20122;-70
2024/03/09 10:50:01;;;;;;;21.13;13.30;;;;;;;9.70;67.80;99053.28;5099411;27;22639;-73
2024/03/09 10:52:32;;;;;;;22.42;13.68;;;;;;;10.27;65.48;99121.03;5112172;27;20055;-73
2024/03/09 10:55:06;;;;;;;20.65;13.23;;;;;;;10.33;64.40;99113.53;5071263;27;20589;-71
2024/03/09 10:57:35;;;;;;;19.30;12.82;;;;;;;10.48;63.93;99111.66;5110898;27;20035;-72
2024/03/09 11:00:03;;;;;;;21.20;14.50;;;;;;;10.63;61.95;99113.28;5136790;27;20051;-70
2024/03/09 11:02:34;;;;;;;20.20;13.57;;;;;;;10.71;62.11;99107.44;5101781;27;20053;-70
2024/03/09 11:05:05;;;;;;;17.85;13.05;;;;;;;10.84;61.86;99109.19;5097691;27;20050;-72
2024/03/09 11:07:35;;;;;;;20.08;13.88;;;;;;;10.92;62.26;99095.41;5102086;27;20050;-72
2024/03/09 11:10:05;;;;;;;;;;;;;;;11.08;62.38;99100.50;5122017;27;20054;-71
2024/03/09 11:12:34;;;;;;;20.15;13.27;;;;;;;10.83;60.65;99059.81;5126357;27;20018;-72
2024/03/09 11:15:08;;;;;;;21.95;13.77;;;;;;;11.08;60.95;99089.91;5091696;27;20128;-70
2024/03/09 11:17:36;;;;;;;20.13;13.75;;;;;;;11.09;61.74;99079.19;5093969;28;20040;-71
2024/03/09 11:20:05;;;;;;;20.42;14.13;;;;;;;10.64;61.96;99008.25;5087684;28;20416;-73
2024/03/09 11:22:46;;;;;;;22.95;14.32;;;;;;;11.14;61.52;99078.88;5108101;27;20630;-70
2024/03/09 11:25:15;;;;;;;20.15;13.55;;;;;;;10.94;60.14;99051.13;5097243;27;20151;-72
2024/03/09 11:27:43;;;;;;;19.88;14.15;;;;;;;11.19;59.89;99084.69;5098963;27;20044;-71
2024/03/09 11:30:15;;;;;;;19.33;13.25;;;;;;;11.25;60.09;99074.50;5090131;27;20627;-73
2024/03/09 11:32:43;;;;;;;23.50;14.35;;;;;;;11.21;59.48;99048.34;5110446;27;20036;-70
2024/03/09 11:35:32;;;;;;;21.33;13.75;;;;;;;11.35;58.56;99047.34;5095639;27;20233;-71
2024/03/09 11:38:12;;;;;;;21.45;13.70;;;;;;;11.55;59.62;99063.53;5068949;27;22944;-71
2024/03/09 11:40:39;;;;;;;22.52;14.10;;;;;;;11.55;59.62;99054.72;5108687;27;20089;-70
2024/03/09 11:43:11;;;;;;;22.10;14.23;;;;;;;11.52;60.61;99054.94;5109985;27;20131;-71
2024/03/09 11:45:40;;;;;;;21.42;13.57;;;;;;;11.62;60.63;99042.72;5077440;27;20512;-70
2024/03/09 11:48:08;;;;;;;21.52;13.05;;;;;;;11.57;60.07;99021.84;5114084;27;20164;-72